Wolcottville, IN (46795)

3:49 PM EST on December 28, 2014 (GMT -0500)
Weather on the hill | Change Station
CLOSE
Current Station
Personal Weather Station
Location: Kendallville, IN
Elevation: 1004 ft
Nearby Weather Stations

Elev 1004 ft 41.45 °N, 85.23 °W | Updated 2 minutes ago

Mostly Cloudy
Mostly Cloudy
33.1 °F
Feels Like 33 °F
N
1.0
Wind Variable Wind from West
Gusts 7.0 mph

Today
High -- | Low -- °F
--% Chance of Precip.
Yesterday
High -- | Low -- °F
Precip. -- in
8:07 AM 5:18 PM
Waxing Crescent, 51% visible
Pressure 30.11 in
Visibility 10.0 miles
Clouds Few 2800 ft
Windchill 33 °F
Dew Point 27 °F
Humidity 78%
Rainfall 0.00 in
Snow Depth Not available.
UV 1 out of 12
Pollen .10 out of 12
Air Quality Not available.
Flu Activity Not available.
METAR KANQ 282055Z AUTO VRB05KT 10SM FEW028 01/M06 A3011 RMK

More Conditions Fewer Conditions

Pressure 30.11 in
Visibility 10.0 miles
Clouds Few 2800 ft
Windchill 33 °F
Dew Point 27 °F
Humidity 78%
Rainfall 0.00 in
Snow Depth Not available.
UV 1 out of 12
Pollen .10 out of 12
Air Quality Not available.
Flu Activity Not available.
METAR KANQ 282055Z AUTO VRB05KT 10SM FEW028 01/M06 A3011 RMK

More Conditions Fewer Conditions

10-Day Weather Forecast

Almanac

Astronomy

Dec. 28, 2014 Rise Set
Actual Time
Civil Twilight
Nautical Twilight
Astronomical Twilight
Moon
Length of Visible Light
Length of Day
Tomorrow will be .
, % of the Moon is Illuminated

Today's Extremes

State Highs State Lows

Community

WunderPhotos

Upload Photos

1,781,414 photos uploaded!

WunderBlogs® & News

Nearby

Air Quality

  Air Quality AQ Index Pollutant
Not available.

Snow Depth

Station Depth Elevation

Earthquake Activity

City Distance Mag. Time & Date
Minimum magnitude displayed is 2.5.

Coastal Water Temperatures

Place Temperature

Nearby Weather Stations